Time;durP1;ratioP1;P1;durP2;ratioP2;P2;SDS_P1;SDS_P2;PMS_P1;PMS_P2;Temp;Humidity;BMP_temperature;BMP_pressure;BME280_temperature;BME280_humidity;BME280_pressure;Samples;Min_cycle;Max_cycle;Signal;HPM_P1;HPM_P2
2023/05/15 00:01:37;;;;;;;6.22;2.63;;;;;;;;;;5005461;28;20050;-67
2023/05/15 00:04:04;;;;;;;6.30;2.33;;;;;;;;;;5005957;28;20045;-66
2023/05/15 00:06:30;;;;;;;4.93;2.58;;;;;;;;;;5008802;28;20087;-66
2023/05/15 00:08:57;;;;;;;9.27;2.80;;;;;;;;;;5011029;28;20651;-67
2023/05/15 00:11:26;;;;;;;7.60;2.25;;;;;;;;;;5009768;28;20034;-68
2023/05/15 00:13:53;;;;;;;5.15;2.45;;;;;;;;;;5010455;28;20071;-67
2023/05/15 00:16:20;;;;;;;5.40;2.22;;;;;;;;;;5011367;28;20557;-66
2023/05/15 00:18:47;;;;;;;8.15;2.70;;;;;;;;;;5006660;28;20069;-68
2023/05/15 00:21:13;;;;;;;6.30;2.80;;;;;;;;;;5006566;28;20106;-66
2023/05/15 00:23:40;;;;;;;5.63;2.90;;;;;;;;;;5006218;28;20049;-66
2023/05/15 00:26:06;;;;;;;6.18;2.60;;;;;;;;;;5000335;28;20125;-68
2023/05/15 00:28:33;;;;;;;5.72;2.95;;;;;;;;;;4991278;28;20049;-65
2023/05/15 00:31:00;;;;;;;8.23;3.00;;;;;;;;;;5001643;28;20534;-65
2023/05/15 00:33:26;;;;;;;5.22;2.85;;;;;;;;;;5006933;28;20543;-65
2023/05/15 00:35:53;;;;;;;5.68;2.58;;;;;;;;;;4997751;28;20045;-69
2023/05/15 00:38:20;;;;;;;4.72;2.25;;;;;;;;;;4997849;28;20045;-66
2023/05/15 00:40:46;;;;;;;4.85;2.50;;;;;;;;;;5005574;28;20042;-64
2023/05/15 00:43:14;;;;;;;5.45;2.70;;;;;;;;;;5010371;28;20059;-68
2023/05/15 00:45:42;;;;;;;7.93;2.90;;;;;;;;;;4996970;28;20042;-65
2023/05/15 00:48:12;;;;;;;7.63;2.58;;;;;;;;;;5004794;28;20323;-64
2023/05/15 00:50:42;;;;;;;4.50;2.33;;;;;;;;;;4993665;28;20720;-68
2023/05/15 00:53:09;;;;;;;4.88;2.40;;;;;;;;;;5009146;28;20046;-65
2023/05/15 00:55:36;;;;;;;7.85;2.65;;;;;;;;;;4991761;28;20065;-65
2023/05/15 00:58:03;;;;;;;5.18;2.35;;;;;;;;;;4981941;28;20133;-66
2023/05/15 01:00:31;;;;;;;7.90;2.88;;;;;;;;;;4997276;28;20602;-65
2023/05/15 01:03:00;;;;;;;6.70;2.80;;;;;;;;;;4997494;28;20083;-65
2023/05/15 01:05:27;;;;;;;5.82;2.88;;;;;;;;;;4995988;28;20132;-65
2023/05/15 01:08:20;;;;;;;4.38;2.03;;;;;;;;;;4994821;28;20386;-66
2023/05/15 01:10:48;;;;;;;5.97;3.00;;;;;;;;;;4988717;28;20048;-67
2023/05/15 01:13:15;;;;;;;7.22;2.45;;;;;;;;;;4996362;28;20046;-63
2023/05/15 01:15:43;;;;;;;5.15;2.65;;;;;;;;;;4994025;28;20104;-65
2023/05/15 01:18:10;;;;;;;4.82;2.20;;;;;;;;;;4994438;28;20052;-66
2023/05/15 01:21:02;;;;;;;5.80;2.65;;;;;;;;;;4993716;28;20112;-66
2023/05/15 01:23:31;;;;;;;5.43;2.55;;;;;;;;;;4962501;28;20587;-70
2023/05/15 01:25:58;;;;;;;7.28;2.70;;;;;;;;;;4997880;28;20623;-66
2023/05/15 01:28:31;;;;;;;5.10;2.67;;;;;;;;;;5001745;28;20386;-66
2023/05/15 01:30:59;;;;;;;4.78;2.47;;;;;;;;;;4999394;28;20038;-66
2023/05/15 01:33:29;;;;;;;4.20;2.00;;;;;;;;;;5007378;28;21811;-68
2023/05/15 01:36:00;;;;;;;6.10;2.35;;;;;;;;;;5000185;28;21980;-63
2023/05/15 01:38:41;;;;;;;5.15;2.67;;;;;;;;;;4998152;28;20042;-65
2023/05/15 01:41:11;;;;;;;8.45;2.45;;;;;;;;;;5010116;28;20164;-66
2023/05/15 01:43:39;;;;;;;5.80;2.33;;;;;;;;;;5009699;28;20038;-64
2023/05/15 01:46:07;;;;;;;6.93;2.75;;;;;;;;;;5009970;28;20512;-64
2023/05/15 01:48:35;;;;;;;4.75;2.40;;;;;;;;;;5007462;28;20056;-65
2023/05/15 01:51:03;;;;;;;4.90;2.40;;;;;;;;;;5010844;28;20093;-64
2023/05/15 01:53:33;;;;;;;4.72;2.25;;;;;;;;;;5008444;28;21633;-66
2023/05/15 01:56:00;;;;;;;6.15;1.95;;;;;;;;;;5010206;28;20041;-64
2023/05/15 01:58:28;;;;;;;9.15;2.30;;;;;;;;;;5009394;28;20067;-65
2023/05/15 02:00:55;;;;;;;6.07;1.98;;;;;;;;;;5010569;28;20053;-66
2023/05/15 02:03:22;;;;;;;8.23;2.30;;;;;;;;;;5010015;28;20034;-68
2023/05/15 02:05:52;;;;;;;4.28;2.22;;;;;;;;;;5010702;28;20148;-65
2023/05/15 02:08:19;;;;;;;5.38;1.95;;;;;;;;;;5010046;28;20033;-66
2023/05/15 02:10:46;;;;;;;4.60;2.30;;;;;;;;;;5010239;28;20037;-65
2023/05/15 02:13:13;;;;;;;4.75;1.95;;;;;;;;;;5008357;28;20045;-66
2023/05/15 02:15:40;;;;;;;4.43;1.80;;;;;;;;;;4995550;28;20057;-64
2023/05/15 02:18:06;;;;;;;5.65;2.08;;;;;;;;;;5008325;28;20046;-65
2023/05/15 02:20:33;;;;;;;5.55;1.80;;;;;;;;;;5000961;28;20056;-66
2023/05/15 02:23:00;;;;;;;3.85;2.03;;;;;;;;;;4975865;28;20045;-65
2023/05/15 02:25:33;;;;;;;3.75;1.80;;;;;;;;;;5007212;28;20096;-65
2023/05/15 02:28:01;;;;;;;4.90;1.80;;;;;;;;;;4997106;28;20068;-66
2023/05/15 02:30:28;;;;;;;4.55;1.70;;;;;;;;;;5001164;28;20723;-66
2023/05/15 02:33:10;;;;;;;5.85;1.60;;;;;;;;;;5008533;28;20068;-65
2023/05/15 02:35:39;;;;;;;4.00;1.50;;;;;;;;;;5008021;28;20049;-66
2023/05/15 02:38:12;;;;;;;4.22;1.70;;;;;;;;;;5008946;28;21311;-63
2023/05/15 02:40:38;;;;;;;;;;;;;;;;;;5006998;28;20045;-64
2023/05/15 02:43:05;;;;;;;3.17;1.33;;;;;;;;;;5009600;28;19917;-65
2023/05/15 02:45:32;;;;;;;4.05;1.55;;;;;;;;;;5008124;28;20041;-67
2023/05/15 02:47:59;;;;;;;6.50;1.50;;;;;;;;;;5009710;28;20046;-65
2023/05/15 02:50:26;;;;;;;3.30;1.30;;;;;;;;;;5009447;28;20037;-66
2023/05/15 02:53:15;;;;;;;5.03;1.60;;;;;;;;;;5008783;28;20096;-67
2023/05/15 02:55:41;;;;;;;4.35;1.80;;;;;;;;;;5009251;28;20381;-66
2023/05/15 02:58:28;;;;;;;5.75;1.95;;;;;;;;;;4976781;28;20042;-64
2023/05/15 03:00:55;;;;;;;10.40;1.90;;;;;;;;;;4977790;28;20517;-65
2023/05/15 03:03:22;;;;;;;5.90;2.03;;;;;;;;;;4978596;28;20057;-64
2023/05/15 03:05:48;;;;;;;5.93;1.70;;;;;;;;;;4977824;28;20069;-64
2023/05/15 03:08:15;;;;;;;4.15;1.50;;;;;;;;;;4977902;28;20133;-65
2023/05/15 03:10:41;;;;;;;4.68;1.27;;;;;;;;;;4977077;28;20113;-63
2023/05/15 03:13:08;;;;;;;3.80;1.45;;;;;;;;;;4979152;28;20053;-64
2023/05/15 03:15:35;;;;;;;3.63;1.17;;;;;;;;;;4962808;28;20053;-63
2023/05/15 03:18:03;;;;;;;3.10;1.25;;;;;;;;;;4978419;28;20078;-62
2023/05/15 03:20:29;;;;;;;3.30;1.35;;;;;;;;;;4975548;28;20504;-62
2023/05/15 03:22:56;;;;;;;3.08;1.10;;;;;;;;;;4976921;28;20050;-65
2023/05/15 03:25:23;;;;;;;3.28;1.08;;;;;;;;;;4978078;28;20045;-64
2023/05/15 03:27:49;;;;;;;3.20;1.10;;;;;;;;;;4978527;28;20500;-63
2023/05/15 03:30:16;;;;;;;3.80;1.20;;;;;;;;;;4976301;28;20067;-65
2023/05/15 03:32:42;;;;;;;5.97;1.30;;;;;;;;;;4977745;28;20129;-63
2023/05/15 03:35:09;;;;;;;9.05;1.17;;;;;;;;;;4984249;28;20048;-63
2023/05/15 03:37:36;;;;;;;3.47;1.30;;;;;;;;;;5007093;28;20069;-64
2023/05/15 03:40:03;;;;;;;3.00;1.20;;;;;;;;;;5007612;28;20049;-64
2023/05/15 03:42:30;;;;;;;2.95;1.10;;;;;;;;;;5007222;28;20060;-63
2023/05/15 03:44:56;;;;;;;2.95;0.98;;;;;;;;;;5007215;28;20052;-61
2023/05/15 03:47:23;;;;;;;3.63;1.27;;;;;;;;;;5004832;28;20145;-64
2023/05/15 03:49:50;;;;;;;3.15;1.13;;;;;;;;;;5008713;28;20038;-61
2023/05/15 03:52:16;;;;;;;4.47;1.52;;;;;;;;;;5002087;28;20504;-63
2023/05/15 03:54:43;;;;;;;3.33;1.15;;;;;;;;;;5005330;28;20832;-63
2023/05/15 03:57:11;;;;;;;3.40;1.30;;;;;;;;;;5006254;28;20042;-63
2023/05/15 03:59:38;;;;;;;3.72;1.17;;;;;;;;;;4999847;28;20069;-62
2023/05/15 04:02:05;;;;;;;3.78;1.30;;;;;;;;;;5002353;28;20049;-63
2023/05/15 04:04:31;;;;;;;4.72;1.30;;;;;;;;;;5005791;28;20533;-64
2023/05/15 04:06:58;;;;;;;6.57;1.30;;;;;;;;;;5006918;28;20057;-62
2023/05/15 04:09:24;;;;;;;5.28;1.23;;;;;;;;;;5006051;28;20048;-63
2023/05/15 04:11:51;;;;;;;3.35;1.20;;;;;;;;;;5009432;28;20606;-63
2023/05/15 04:14:18;;;;;;;3.13;1.15;;;;;;;;;;4999776;28;20040;-61
2023/05/15 04:16:44;;;;;;;3.15;1.25;;;;;;;;;;4994994;28;20464;-63
2023/05/15 04:19:11;;;;;;;3.60;1.23;;;;;;;;;;5007726;28;20065;-64
2023/05/15 04:21:37;;;;;;;5.35;1.40;;;;;;;;;;5000241;28;20069;-63
2023/05/15 04:24:04;;;;;;;3.90;1.05;;;;;;;;;;5008192;28;20105;-63
2023/05/15 04:26:31;;;;;;;3.97;1.35;;;;;;;;;;5006640;28;20042;-65
2023/05/15 04:28:58;;;;;;;3.47;1.30;;;;;;;;;;5005939;28;20813;-64
2023/05/15 04:31:26;;;;;;;4.53;1.27;;;;;;;;;;5009466;28;20077;-62
2023/05/15 04:33:53;;;;;;;4.45;1.35;;;;;;;;;;5013662;28;20046;-65
2023/05/15 04:36:20;;;;;;;4.50;1.35;;;;;;;;;;5011579;28;20052;-64
2023/05/15 04:38:47;;;;;;;4.80;1.42;;;;;;;;;;4993246;28;20034;-61
2023/05/15 04:41:13;;;;;;;4.90;1.15;;;;;;;;;;4993681;28;20064;-60
2023/05/15 04:43:40;;;;;;;5.10;1.30;;;;;;;;;;5012515;28;20116;-63
2023/05/15 04:46:07;;;;;;;4.43;1.38;;;;;;;;;;5011189;28;20077;-61
2023/05/15 04:48:33;;;;;;;5.10;1.40;;;;;;;;;;5010641;28;20119;-62
2023/05/15 04:51:00;;;;;;;3.15;1.08;;;;;;;;;;5010990;28;20038;-64
2023/05/15 04:53:26;;;;;;;5.80;1.52;;;;;;;;;;5011238;28;20636;-64
2023/05/15 04:55:53;;;;;;;3.58;1.50;;;;;;;;;;5013863;28;20046;-61
2023/05/15 04:58:20;;;;;;;3.58;1.23;;;;;;;;;;5015750;28;20043;-60
2023/05/15 05:00:46;;;;;;;5.20;1.45;;;;;;;;;;5014635;28;20056;-62
2023/05/15 05:03:13;;;;;;;5.70;1.70;;;;;;;;;;5012978;28;20520;-63
2023/05/15 05:05:40;;;;;;;3.72;1.30;;;;;;;;;;5005989;28;20192;-63
2023/05/15 05:08:06;;;;;;;6.38;1.55;;;;;;;;;;5013056;28;20044;-63
2023/05/15 05:10:33;;;;;;;3.00;1.40;;;;;;;;;;5012221;28;20038;-62
2023/05/15 05:12:59;;;;;;;7.55;1.63;;;;;;;;;;5001211;28;20120;-62
2023/05/15 05:15:26;;;;;;;4.82;1.58;;;;;;;;;;5000778;28;20365;-63
2023/05/15 05:17:53;;;;;;;3.33;1.30;;;;;;;;;;5012997;28;20056;-65
2023/05/15 05:20:19;;;;;;;5.60;1.35;;;;;;;;;;5011672;28;20049;-61
2023/05/15 05:22:46;;;;;;;4.47;1.38;;;;;;;;;;5013984;28;20211;-62
2023/05/15 05:25:13;;;;;;;5.78;1.67;;;;;;;;;;5011553;28;20144;-64
2023/05/15 05:27:39;;;;;;;3.83;1.30;;;;;;;;;;5010571;28;20046;-63
2023/05/15 05:30:07;;;;;;;4.68;1.23;;;;;;;;;;5010043;28;20037;-64
2023/05/15 05:32:34;;;;;;;3.53;1.40;;;;;;;;;;5011034;28;20408;-64
2023/05/15 05:35:00;;;;;;;5.65;1.33;;;;;;;;;;5010827;28;20396;-64
2023/05/15 05:37:27;;;;;;;4.03;1.33;;;;;;;;;;5008881;28;20069;-62
2023/05/15 05:39:54;;;;;;;3.85;1.60;;;;;;;;;;4998562;28;20065;-65
2023/05/15 05:42:41;;;;;;;6.60;1.35;;;;;;;;;;4970013;28;20054;-62
2023/05/15 05:45:08;;;;;;;4.15;1.65;;;;;;;;;;4970535;28;20035;-65
2023/05/15 05:47:34;;;;;;;5.07;1.58;;;;;;;;;;4959224;28;20544;-63
2023/05/15 05:50:02;;;;;;;3.88;1.73;;;;;;;;;;4970524;28;20046;-64
2023/05/15 05:52:28;;;;;;;4.03;1.70;;;;;;;;;;4970332;28;20062;-63
2023/05/15 05:54:55;;;;;;;3.28;1.40;;;;;;;;;;4970068;28;20473;-63
2023/05/15 05:57:22;;;;;;;4.38;1.67;;;;;;;;;;4970646;28;20133;-64
2023/05/15 05:59:48;;;;;;;5.07;1.80;;;;;;;;;;4970512;28;20395;-63
2023/05/15 06:02:15;;;;;;;4.13;1.38;;;;;;;;;;4973156;28;20075;-63
2023/05/15 06:04:42;;;;;;;5.63;1.58;;;;;;;;;;4955552;28;20038;-64
2023/05/15 06:07:09;;;;;;;4.22;1.90;;;;;;;;;;4971088;28;20039;-62
2023/05/15 06:09:36;;;;;;;4.13;1.50;;;;;;;;;;4969626;28;20030;-64
2023/05/15 06:12:07;;;;;;;5.35;1.70;;;;;;;;;;4959522;28;20498;-60
2023/05/15 06:14:33;;;;;;;6.13;1.55;;;;;;;;;;5004744;28;20073;-63
2023/05/15 06:17:01;;;;;;;4.95;1.60;;;;;;;;;;5008815;28;20103;-60
2023/05/15 06:19:27;;;;;;;4.82;1.50;;;;;;;;;;4999984;28;20132;-61
2023/05/15 06:21:54;;;;;;;4.57;1.60;;;;;;;;;;5000525;28;20496;-62
2023/05/15 06:24:20;;;;;;;4.03;1.27;;;;;;;;;;5008094;28;20046;-61
2023/05/15 06:26:47;;;;;;;4.32;1.83;;;;;;;;;;5012298;28;21630;-62
2023/05/15 06:29:15;;;;;;;4.40;1.42;;;;;;;;;;5009000;28;20411;-61
2023/05/15 06:31:41;;;;;;;4.50;1.50;;;;;;;;;;5008646;28;20045;-64
2023/05/15 06:34:08;;;;;;;7.47;1.98;;;;;;;;;;5000497;28;20037;-63
2023/05/15 06:36:35;;;;;;;4.15;1.60;;;;;;;;;;5000954;28;20036;-64
2023/05/15 06:39:01;;;;;;;5.05;1.88;;;;;;;;;;5009220;28;20057;-63
2023/05/15 06:41:28;;;;;;;4.75;1.95;;;;;;;;;;5007753;28;20443;-64
2023/05/15 06:43:55;;;;;;;5.82;1.92;;;;;;;;;;5007492;28;20041;-63
2023/05/15 06:46:21;;;;;;;6.97;1.80;;;;;;;;;;5006917;28;20057;-63
2023/05/15 06:48:48;;;;;;;5.97;2.00;;;;;;;;;;5008042;28;20162;-63
2023/05/15 06:51:14;;;;;;;9.40;1.80;;;;;;;;;;5009538;28;20046;-64
2023/05/15 06:54:01;;;;;;;3.90;1.55;;;;;;;;;;4959994;28;20066;-63
2023/05/15 06:56:28;;;;;;;5.18;1.80;;;;;;;;;;4962249;28;20129;-63
2023/05/15 06:58:55;;;;;;;6.10;1.73;;;;;;;;;;4958950;28;20102;-64
2023/05/15 07:01:22;;;;;;;3.88;1.75;;;;;;;;;;4957281;28;21847;-62
2023/05/15 07:03:48;;;;;;;4.43;1.83;;;;;;;;;;4947122;28;20121;-65
2023/05/15 07:06:15;;;;;;;4.72;1.77;;;;;;;;;;4947116;28;20042;-64
2023/05/15 07:08:42;;;;;;;4.13;1.80;;;;;;;;;;4956489;28;20042;-64
2023/05/15 07:11:09;;;;;;;5.05;1.83;;;;;;;;;;4958637;28;20045;-64
2023/05/15 07:13:35;;;;;;;5.07;1.83;;;;;;;;;;4957897;28;20078;-63
2023/05/15 07:16:02;;;;;;;6.18;1.70;;;;;;;;;;4958628;28;20046;-65
2023/05/15 07:18:29;;;;;;;7.22;2.05;;;;;;;;;;4957428;28;20046;-64
2023/05/15 07:20:56;;;;;;;5.55;1.70;;;;;;;;;;4939324;28;20079;-63
2023/05/15 07:23:23;;;;;;;6.75;1.90;;;;;;;;;;4957294;28;20062;-62
2023/05/15 07:25:49;;;;;;;4.65;1.63;;;;;;;;;;4957801;28;20051;-62
2023/05/15 07:28:16;;;;;;;8.40;1.90;;;;;;;;;;4957942;28;20073;-64
2023/05/15 07:30:43;;;;;;;4.55;1.77;;;;;;;;;;4965050;28;20337;-63
2023/05/15 07:33:09;;;;;;;4.93;1.83;;;;;;;;;;5011188;28;20061;-63
2023/05/15 07:35:36;;;;;;;6.10;1.90;;;;;;;;;;5008067;28;20038;-61
2023/05/15 07:38:03;;;;;;;5.10;1.60;;;;;;;;;;5009879;28;20041;-63
2023/05/15 07:40:30;;;;;;;7.80;1.80;;;;;;;;;;5006950;28;20045;-63
2023/05/15 07:42:57;;;;;;;4.28;1.73;;;;;;;;;;5009973;28;21628;-62
2023/05/15 07:45:24;;;;;;;4.50;1.73;;;;;;;;;;5009366;28;20042;-66
2023/05/15 07:47:50;;;;;;;6.95;1.90;;;;;;;;;;5008528;28;20404;-63
2023/05/15 07:50:17;;;;;;;6.63;1.90;;;;;;;;;;5008250;28;20044;-63
2023/05/15 07:52:44;;;;;;;5.03;1.88;;;;;;;;;;4998872;28;20117;-65
2023/05/15 07:55:11;;;;;;;7.60;1.90;;;;;;;;;;5008071;28;20442;-62
2023/05/15 07:57:38;;;;;;;4.78;1.90;;;;;;;;;;5006950;28;20041;-65
2023/05/15 08:00:11;;;;;;;7.88;1.75;;;;;;;;;;5006448;28;20049;-65
2023/05/15 08:02:38;;;;;;;4.57;1.52;;;;;;;;;;5007871;28;20038;-64
2023/05/15 08:05:04;;;;;;;5.50;1.52;;;;;;;;;;5008447;28;20080;-63
2023/05/15 08:07:34;;;;;;;3.78;1.52;;;;;;;;;;5008407;28;20060;-61
2023/05/15 08:10:04;;;;;;;4.43;1.73;;;;;;;;;;5006909;28;20053;-63
2023/05/15 08:12:31;;;;;;;6.07;1.83;;;;;;;;;;4990310;28;20052;-65
2023/05/15 08:14:58;;;;;;;4.88;1.45;;;;;;;;;;5007950;28;20045;-62
2023/05/15 08:17:25;;;;;;;5.22;1.55;;;;;;;;;;5005054;28;20042;-64
2023/05/15 08:19:52;;;;;;;3.90;1.50;;;;;;;;;;4997363;28;20034;-65
2023/05/15 08:22:19;;;;;;;6.03;1.52;;;;;;;;;;4988503;28;20565;-62
2023/05/15 08:24:46;;;;;;;5.90;2.08;;;;;;;;;;5007804;28;20033;-64
2023/05/15 08:27:12;;;;;;;9.15;1.75;;;;;;;;;;5007388;28;20037;-65
2023/05/15 08:29:39;;;;;;;6.28;1.77;;;;;;;;;;5007406;28;20149;-63
2023/05/15 08:32:06;;;;;;;5.03;1.38;;;;;;;;;;4994477;28;20042;-63
2023/05/15 08:34:33;;;;;;;6.50;1.75;;;;;;;;;;5007474;28;20037;-63
2023/05/15 08:36:59;;;;;;;4.13;1.63;;;;;;;;;;5007161;28;20088;-63
2023/05/15 08:39:26;;;;;;;3.92;1.65;;;;;;;;;;5006280;28;20049;-64
2023/05/15 08:41:56;;;;;;;4.85;1.58;;;;;;;;;;5006074;28;20388;-64
2023/05/15 08:44:23;;;;;;;4.68;1.77;;;;;;;;;;5004802;28;20038;-62
2023/05/15 08:46:52;;;;;;;4.70;1.83;;;;;;;;;;5006847;28;20439;-62
2023/05/15 08:49:24;;;;;;;4.05;1.60;;;;;;;;;;5005954;28;20073;-63
2023/05/15 08:51:51;;;;;;;6.72;1.95;;;;;;;;;;5007613;28;20046;-64
2023/05/15 08:54:18;;;;;;;5.20;1.70;;;;;;;;;;5008244;28;20057;-64
2023/05/15 08:56:45;;;;;;;5.60;1.65;;;;;;;;;;5004708;28;20034;-63
2023/05/15 08:59:11;;;;;;;6.32;1.58;;;;;;;;;;5004604;28;20044;-63
2023/05/15 09:01:38;;;;;;;5.00;1.40;;;;;;;;;;4994638;28;20054;-65
2023/05/15 09:04:04;;;;;;;4.72;1.73;;;;;;;;;;5004103;28;20042;-61
2023/05/15 09:06:33;;;;;;;5.78;1.63;;;;;;;;;;5006668;28;20054;-63
2023/05/15 09:09:02;;;;;;;4.45;1.63;;;;;;;;;;4994292;28;20038;-63
2023/05/15 09:11:29;;;;;;;4.25;1.63;;;;;;;;;;5005151;28;20046;-60
2023/05/15 09:13:59;;;;;;;3.38;1.40;;;;;;;;;;4994429;28;20407;-62
2023/05/15 09:16:26;;;;;;;5.05;1.70;;;;;;;;;;5004499;28;20069;-62
2023/05/15 09:18:53;;;;;;;4.13;1.60;;;;;;;;;;4991113;28;20050;-65
2023/05/15 09:21:24;;;;;;;3.90;1.67;;;;;;;;;;5001918;28;20107;-62
2023/05/15 09:23:51;;;;;;;4.60;1.33;;;;;;;;;;5009745;28;20159;-64
2023/05/15 09:26:17;;;;;;;11.95;1.88;;;;;;;;;;5009281;28;20042;-60
2023/05/15 09:28:44;;;;;;;4.28;1.60;;;;;;;;;;5009496;28;20041;-62
2023/05/15 09:31:11;;;;;;;6.88;2.13;;;;;;;;;;5011027;28;20045;-62
2023/05/15 09:33:38;;;;;;;8.38;2.30;;;;;;;;;;4997536;28;20041;-62
2023/05/15 09:36:06;;;;;;;7.70;2.00;;;;;;;;;;5010527;28;20073;-61
2023/05/15 09:38:34;;;;;;;5.28;1.80;;;;;;;;;;5008974;28;20127;-63
2023/05/15 09:41:02;;;;;;;5.18;1.85;;;;;;;;;;5010784;28;20680;-62
2023/05/15 09:43:29;;;;;;;7.03;2.05;;;;;;;;;;5009299;28;20446;-64
2023/05/15 09:45:56;;;;;;;6.28;2.35;;;;;;;;;;5010812;28;20037;-62
2023/05/15 09:48:23;;;;;;;8.85;2.08;;;;;;;;;;5010326;28;20052;-61
2023/05/15 09:50:50;;;;;;;6.18;2.38;;;;;;;;;;5012089;28;20502;-61
2023/05/15 09:53:16;;;;;;;5.57;2.45;;;;;;;;;;5011764;28;20038;-61
2023/05/15 09:55:43;;;;;;;6.05;2.63;;;;;;;;;;5010159;28;22157;-63
2023/05/15 09:58:11;;;;;;;5.63;2.63;;;;;;;;;;4998397;28;20480;-62
2023/05/15 10:00:38;;;;;;;5.30;2.60;;;;;;;;;;5010463;28;20049;-61
2023/05/15 10:03:05;;;;;;;6.63;2.85;;;;;;;;;;5011567;28;20042;-64
2023/05/15 10:05:33;;;;;;;6.22;3.28;;;;;;;;;;4996985;28;20034;-61
2023/05/15 10:07:59;;;;;;;7.30;3.08;;;;;;;;;;5009704;28;20985;-63
2023/05/15 10:10:27;;;;;;;4.90;2.90;;;;;;;;;;5009812;28;20096;-60
2023/05/15 10:12:54;;;;;;;8.10;3.47;;;;;;;;;;5009144;28;20038;-63
2023/05/15 10:15:22;;;;;;;6.40;3.00;;;;;;;;;;5010650;28;20050;-63
2023/05/15 10:17:49;;;;;;;6.18;3.47;;;;;;;;;;5007281;28;20045;-62
2023/05/15 10:20:16;;;;;;;6.60;3.17;;;;;;;;;;5009885;28;20041;-62
2023/05/15 10:22:45;;;;;;;8.48;3.40;;;;;;;;;;5007928;28;20161;-62
2023/05/15 10:25:33;;;;;;;5.78;3.40;;;;;;;;;;5012459;28;20149;-62
2023/05/15 10:28:00;;;;;;;6.97;3.35;;;;;;;;;;5009130;28;20057;-67
2023/05/15 10:30:28;;;;;;;6.97;3.78;;;;;;;;;;5006590;28;20042;-62
2023/05/15 10:33:15;;;;;;;8.00;3.50;;;;;;;;;;4991127;28;20045;-63
2023/05/15 10:35:42;;;;;;;7.72;3.33;;;;;;;;;;4989889;28;20132;-64
2023/05/15 10:38:10;;;;;;;6.80;3.75;;;;;;;;;;4974616;28;20472;-63
2023/05/15 10:40:38;;;;;;;5.38;3.10;;;;;;;;;;4989501;28;20053;-63
2023/05/15 10:43:05;;;;;;;7.18;3.83;;;;;;;;;;4988876;28;20065;-62
2023/05/15 10:45:32;;;;;;;6.65;3.50;;;;;;;;;;4991380;28;20076;-64
2023/05/15 10:47:59;;;;;;;6.90;3.70;;;;;;;;;;4990559;28;20141;-64
2023/05/15 10:50:26;;;;;;;6.90;3.38;;;;;;;;;;4991125;28;20064;-63
2023/05/15 10:52:55;;;;;;;8.27;4.03;;;;;;;;;;4991059;28;20136;-63
2023/05/15 10:55:22;;;;;;;8.43;4.20;;;;;;;;;;4989497;28;20065;-63
2023/05/15 10:57:48;;;;;;;10.73;3.92;;;;;;;;;;4994468;28;20061;-63
2023/05/15 11:00:30;;;;;;;6.75;3.88;;;;;;;;;;4992834;28;20076;-61
2023/05/15 11:02:58;;;;;;;6.85;4.28;;;;;;;;;;4990707;28;20042;-62
2023/05/15 11:05:25;;;;;;;8.90;4.30;;;;;;;;;;4992992;28;20034;-63
2023/05/15 11:08:10;;;;;;;8.35;4.10;;;;;;;;;;5010276;28;20073;-60
2023/05/15 11:10:38;;;;;;;9.05;4.57;;;;;;;;;;5008030;28;20444;-60
2023/05/15 11:13:05;;;;;;;9.13;4.55;;;;;;;;;;5007639;28;20613;-60
2023/05/15 11:15:44;;;;;;;9.70;4.53;;;;;;;;;;5005409;28;20037;-61
2023/05/15 11:18:11;;;;;;;8.88;4.50;;;;;;;;;;5000258;28;20048;-62
2023/05/15 11:20:39;;;;;;;8.43;4.40;;;;;;;;;;5008373;28;20042;-62
2023/05/15 11:23:06;;;;;;;7.03;4.32;;;;;;;;;;5008321;28;20053;-65
2023/05/15 11:25:36;;;;;;;9.88;4.70;;;;;;;;;;5008396;28;20048;-63
2023/05/15 11:28:03;;;;;;;7.47;4.50;;;;;;;;;;5002674;28;20042;-61
2023/05/15 11:30:37;;;;;;;7.88;4.32;;;;;;;;;;5009887;28;20112;-64
2023/05/15 11:33:07;;;;;;;8.30;4.47;;;;;;;;;;5006884;28;20119;-63
2023/05/15 11:35:37;;;;;;;8.35;4.60;;;;;;;;;;4996874;28;20385;-63
2023/05/15 11:38:07;;;;;;;9.45;4.97;;;;;;;;;;5000423;28;20056;-62
2023/05/15 11:40:59;;;;;;;8.32;4.78;;;;;;;;;;4955910;28;20043;-65
2023/05/15 11:43:29;;;;;;;7.38;4.80;;;;;;;;;;4954136;28;20035;-61
2023/05/15 11:45:59;;;;;;;12.40;4.90;;;;;;;;;;4957553;28;20106;-63
2023/05/15 11:48:37;;;;;;;9.52;4.80;;;;;;;;;;4956711;28;20074;-62
2023/05/15 11:51:04;;;;;;;9.30;5.28;;;;;;;;;;4955515;28;20055;-62
2023/05/15 11:53:31;;;;;;;9.45;5.20;;;;;;;;;;4955544;28;20042;-64
2023/05/15 11:55:58;;;;;;;9.45;5.15;;;;;;;;;;4958263;28;20126;-61
2023/05/15 11:58:25;;;;;;;9.63;5.82;;;;;;;;;;4954812;28;20130;-62
2023/05/15 12:00:53;;;;;;;8.32;5.18;;;;;;;;;;4957793;28;20090;-62
2023/05/15 12:03:39;;;;;;;8.15;5.05;;;;;;;;;;4933945;28;20046;-60
2023/05/15 12:06:06;;;;;;;11.18;5.00;;;;;;;;;;4916760;29;20725;-62
2023/05/15 12:08:35;;;;;;;8.63;4.68;;;;;;;;;;4923917;28;20050;-61
2023/05/15 12:11:02;;;;;;;11.93;5.95;;;;;;;;;;4935884;29;20062;-63
2023/05/15 12:13:29;;;;;;;9.57;5.43;;;;;;;;;;4934785;28;20071;-64
2023/05/15 12:15:56;;;;;;;9.48;5.43;;;;;;;;;;4937004;29;20051;-62
2023/05/15 12:18:23;;;;;;;10.27;5.10;;;;;;;;;;4954337;28;20532;-63
2023/05/15 12:20:51;;;;;;;9.82;5.97;;;;;;;;;;4959347;28;20468;-59
2023/05/15 12:23:20;;;;;;;9.60;5.53;;;;;;;;;;4970473;28;20046;-62
2023/05/15 12:25:47;;;;;;;13.10;5.93;;;;;;;;;;4976858;28;20042;-62
2023/05/15 12:28:14;;;;;;;9.50;5.75;;;;;;;;;;4976802;28;20043;-62
2023/05/15 12:30:41;;;;;;;10.52;6.55;;;;;;;;;;4974401;28;20098;-63
2023/05/15 12:33:10;;;;;;;12.55;6.13;;;;;;;;;;4959788;28;20173;-66
2023/05/15 12:35:37;;;;;;;12.75;6.10;;;;;;;;;;4976159;28;20072;-64
2023/05/15 12:38:05;;;;;;;10.55;6.10;;;;;;;;;;4976980;28;20074;-63
2023/05/15 12:40:36;;;;;;;9.77;5.90;;;;;;;;;;4976915;28;20102;-63
2023/05/15 12:43:06;;;;;;;11.02;6.60;;;;;;;;;;4992638;28;20062;-65
2023/05/15 12:45:36;;;;;;;10.48;5.55;;;;;;;;;;5003659;28;20046;-65
2023/05/15 12:48:03;;;;;;;9.73;5.68;;;;;;;;;;4999610;28;20511;-62
2023/05/15 12:50:32;;;;;;;11.05;5.78;;;;;;;;;;4987357;28;20077;-64
2023/05/15 12:53:01;;;;;;;9.82;5.55;;;;;;;;;;4997125;28;20058;-65
2023/05/15 12:55:35;;;;;;;9.02;5.90;;;;;;;;;;5000150;28;20041;-63
2023/05/15 12:58:09;;;;;;;8.80;5.50;;;;;;;;;;4991593;28;20092;-66
2023/05/15 13:00:36;;;;;;;9.30;5.28;;;;;;;;;;4990769;28;20146;-63
2023/05/15 13:03:04;;;;;;;10.05;5.90;;;;;;;;;;4996584;28;20046;-62
2023/05/15 13:05:35;;;;;;;10.02;5.90;;;;;;;;;;4996947;28;20043;-63
2023/05/15 13:08:03;;;;;;;9.73;5.60;;;;;;;;;;4989655;28;20026;-64
2023/05/15 13:10:32;;;;;;;8.85;5.13;;;;;;;;;;4993263;28;20038;-68
2023/05/15 13:12:58;;;;;;;10.30;5.43;;;;;;;;;;4997476;28;20041;-65
2023/05/15 13:15:25;;;;;;;10.55;5.32;;;;;;;;;;4989932;28;20049;-64
2023/05/15 13:17:55;;;;;;;13.52;6.03;;;;;;;;;;4996962;28;20042;-64
2023/05/15 14:33:41;;;;;;;9.95;4.68;;;;;;;;;;5054927;27;20465;-60
2023/05/15 14:36:08;;;;;;;11.23;4.25;;;;;;;;;;5056395;28;20033;-60
2023/05/15 14:38:37;;;;;;;13.60;5.53;;;;;;;;;;5051891;28;20041;-60
2023/05/15 14:41:04;;;;;;;13.68;4.95;;;;;;;;;;5057490;28;20412;-60
2023/05/15 14:43:31;;;;;;;13.23;4.72;;;;;;;;;;5054571;28;20044;-61
2023/05/15 14:45:58;;;;;;;7.05;4.15;;;;;;;;;;5055820;28;20123;-63
2023/05/15 14:48:24;;;;;;;15.07;4.20;;;;;;;;;;5054325;28;20528;-64
2023/05/15 14:50:51;;;;;;;20.35;5.28;;;;;;;;;;5055881;28;20045;-61
2023/05/15 14:53:17;;;;;;;11.23;4.82;;;;;;;;;;5055869;28;20127;-62
2023/05/15 14:55:44;;;;;;;16.45;4.57;;;;;;;;;;5053395;28;20812;-62
2023/05/15 14:58:11;;;;;;;11.38;4.22;;;;;;;;;;5034067;28;20127;-62
2023/05/15 15:00:37;;;;;;;9.52;4.03;;;;;;;;;;5051646;28;20501;-60
2023/05/15 15:03:24;;;;;;;10.98;4.00;;;;;;;;;;5018355;28;20037;-63
2023/05/15 15:05:50;;;;;;;10.75;3.83;;;;;;;;;;5020771;28;20067;-60
2023/05/15 15:08:18;;;;;;;11.25;3.97;;;;;;;;;;5015030;28;20930;-60
2023/05/15 15:10:46;;;;;;;9.68;3.70;;;;;;;;;;5013262;28;20030;-62
2023/05/15 15:13:13;;;;;;;7.70;3.60;;;;;;;;;;5005984;28;20049;-62
2023/05/15 15:15:40;;;;;;;9.00;3.40;;;;;;;;;;5009101;28;20180;-61
2023/05/15 15:18:07;;;;;;;8.52;4.00;;;;;;;;;;5023613;28;20041;-63
2023/05/15 15:20:34;;;;;;;13.00;4.20;;;;;;;;;;5008702;28;20049;-61
2023/05/15 15:23:00;;;;;;;11.10;3.70;;;;;;;;;;5023148;28;20136;-62
2023/05/15 15:25:47;;;;;;;8.88;3.65;;;;;;;;;;4969032;28;20089;-63
2023/05/15 15:28:13;;;;;;;6.85;3.50;;;;;;;;;;4994376;28;20038;-62
2023/05/15 15:30:40;;;;;;;6.57;3.47;;;;;;;;;;4991337;28;20049;-63
2023/05/15 15:33:07;;;;;;;10.23;3.45;;;;;;;;;;4993889;28;20152;-59
2023/05/15 15:35:33;;;;;;;10.05;3.35;;;;;;;;;;5008169;28;20037;-59
2023/05/15 15:38:00;;;;;;;5.32;2.60;;;;;;;;;;5009613;28;20559;-61
2023/05/15 15:40:28;;;;;;;10.98;3.10;;;;;;;;;;5007592;28;20073;-63
2023/05/15 15:42:55;;;;;;;7.18;2.63;;;;;;;;;;5004614;28;20636;-60
2023/05/15 15:45:21;;;;;;;7.93;2.90;;;;;;;;;;4995747;28;20046;-61
2023/05/15 15:47:48;;;;;;;7.57;2.67;;;;;;;;;;4987128;28;20038;-60
2023/05/15 15:50:15;;;;;;;8.70;2.83;;;;;;;;;;4994470;28;20048;-62
2023/05/15 15:52:41;;;;;;;6.68;2.55;;;;;;;;;;4993164;28;20456;-62
2023/05/15 15:55:08;;;;;;;9.40;2.42;;;;;;;;;;4993900;28;20096;-61
2023/05/15 15:57:36;;;;;;;6.95;2.47;;;;;;;;;;4993035;28;20030;-60
2023/05/15 16:00:04;;;;;;;6.50;2.65;;;;;;;;;;4992046;28;20133;-62
2023/05/15 16:02:30;;;;;;;5.55;2.45;;;;;;;;;;5000739;28;20065;-63